createdAt,value
2023-04-13T00:00:35.446Z,8.40
2023-04-13T00:03:03.729Z,8.30
2023-04-13T00:05:34.377Z,8.30
2023-04-13T00:08:03.502Z,8.20
2023-04-13T00:10:36.160Z,8.30
2023-04-13T00:13:05.253Z,8.30
2023-04-13T00:15:36.819Z,8.40
2023-04-13T00:18:05.459Z,8.30
2023-04-13T00:20:33.917Z,8.30
2023-04-13T00:23:03.798Z,8.30
2023-04-13T00:25:31.984Z,8.20
2023-04-13T00:28:03.128Z,8.20
2023-04-13T00:30:31.704Z,8.20
2023-04-13T00:33:03.750Z,8.10
2023-04-13T00:35:32.095Z,8.10
2023-04-13T00:38:03.391Z,8.10
2023-04-13T00:40:31.584Z,8.00
2023-04-13T00:43:00.739Z,8.10
2023-04-13T00:45:29.326Z,8.00
2023-04-13T00:47:58.005Z,8.00
2023-04-13T00:50:27.657Z,8.10
2023-04-13T00:52:55.755Z,8.10
2023-04-13T00:55:25.104Z,8.30
2023-04-13T00:57:53.521Z,8.30
2023-04-13T01:00:24.677Z,8.40
2023-04-13T01:02:55.278Z,8.40
2023-04-13T01:05:25.806Z,8.30
2023-04-13T01:08:00.535Z,8.20
2023-04-13T01:10:30.824Z,8.30
2023-04-13T01:13:04.452Z,8.30
2023-04-13T01:15:37.158Z,8.30
2023-04-13T01:18:08.890Z,8.20
2023-04-13T01:20:39.160Z,8.10
2023-04-13T01:23:10.720Z,8.10
2023-04-13T01:25:40.534Z,8.20
2023-04-13T01:28:10.740Z,8.20
2023-04-13T01:30:40.012Z,8.10
2023-04-13T01:33:10.205Z,8.00
2023-04-13T01:35:39.654Z,7.80
2023-04-13T01:38:09.986Z,7.90
2023-04-13T01:40:42.217Z,7.90
2023-04-13T01:43:13.646Z,7.90
2023-04-13T01:45:55.124Z,7.90
2023-04-13T01:48:28.925Z,7.90
2023-04-13T01:51:06.098Z,8.00
2023-04-13T01:53:49.049Z,7.90
2023-04-13T01:56:23.141Z,8.00
2023-04-13T01:59:00.108Z,8.00
2023-04-13T02:01:30.176Z,8.00
2023-04-13T02:04:00.615Z,7.90
2023-04-13T02:06:33.018Z,8.00
2023-04-13T02:09:06.497Z,8.00
2023-04-13T02:11:34.842Z,8.00
2023-04-13T02:14:06.569Z,8.00
2023-04-13T02:16:40.807Z,8.10
2023-04-13T02:19:08.964Z,8.10
2023-04-13T02:21:43.352Z,8.10
2023-04-13T02:24:17.816Z,8.20
2023-04-13T02:26:52.781Z,8.20
2023-04-13T02:29:24.329Z,8.30
2023-04-13T02:32:01.909Z,8.30
2023-04-13T02:34:40.268Z,8.30
2023-04-13T02:37:13.868Z,8.30
2023-04-13T02:39:42.212Z,8.40
2023-04-13T02:42:11.808Z,8.40
2023-04-13T02:44:41.396Z,8.50
2023-04-13T02:47:09.578Z,8.40
2023-04-13T02:49:38.383Z,8.40
2023-04-13T02:52:37.469Z,8.50
2023-04-13T02:55:09.121Z,8.50
2023-04-13T02:57:58.075Z,8.50
2023-04-13T03:00:28.719Z,8.50
2023-04-13T03:03:03.592Z,8.60
2023-04-13T03:05:38.890Z,8.50
2023-04-13T03:08:10.291Z,8.40
2023-04-13T03:10:43.383Z,8.50
2023-04-13T03:13:11.613Z,8.60
2023-04-13T03:15:42.218Z,8.50
2023-04-13T03:18:13.286Z,8.50
2023-04-13T03:20:41.875Z,8.60
2023-04-13T03:23:10.642Z,8.50
2023-04-13T03:25:39.929Z,8.40
2023-04-13T03:28:09.229Z,8.40
2023-04-13T03:30:44.020Z,8.40
2023-04-13T03:33:12.196Z,8.40
2023-04-13T03:35:41.072Z,8.40
2023-04-13T03:38:17.610Z,8.40
2023-04-13T03:40:48.214Z,8.40
2023-04-13T03:43:17.254Z,8.40
2023-04-13T03:45:52.673Z,8.40
2023-04-13T03:48:21.764Z,8.30
2023-04-13T03:50:50.418Z,8.40
2023-04-13T03:53:27.060Z,8.30
2023-04-13T03:55:57.169Z,8.40
2023-04-13T03:58:26.677Z,8.30
2023-04-13T04:00:56.852Z,8.40
2023-04-13T04:03:38.398Z,8.30
2023-04-13T04:06:09.905Z,8.30
2023-04-13T04:08:41.153Z,8.30
2023-04-13T04:11:19.848Z,8.20
2023-04-13T04:13:48.034Z,8.30
2023-04-13T04:16:17.869Z,8.30
2023-04-13T04:18:53.068Z,8.30
2023-04-13T04:21:22.497Z,8.30
2023-04-13T04:23:52.203Z,8.30
2023-04-13T04:26:25.993Z,8.30
2023-04-13T04:29:03.063Z,8.30
2023-04-13T04:31:37.460Z,8.30
2023-04-13T04:34:12.047Z,8.30
2023-04-13T04:36:45.573Z,8.40
2023-04-13T04:39:14.829Z,8.40
2023-04-13T04:41:54.272Z,8.40
2023-04-13T04:44:25.368Z,8.40
2023-04-13T04:46:55.712Z,8.40
2023-04-13T04:49:23.845Z,8.30
2023-04-13T04:51:53.065Z,8.40
2023-04-13T04:54:21.998Z,8.40
2023-04-13T04:56:50.062Z,8.40
2023-04-13T04:59:20.973Z,8.30
2023-04-13T05:02:04.100Z,8.40
2023-04-13T05:04:33.899Z,8.40
2023-04-13T05:07:02.702Z,8.40
2023-04-13T05:09:37.519Z,8.40
2023-04-13T05:12:06.158Z,8.40
2023-04-13T05:14:35.053Z,8.50
2023-04-13T05:17:18.285Z,8.40
2023-04-13T05:19:49.951Z,8.50
2023-04-13T05:22:23.322Z,8.50
2023-04-13T05:24:58.227Z,8.40
2023-04-13T05:27:26.730Z,8.50
2023-04-13T05:29:57.210Z,8.50
2023-04-13T05:32:28.924Z,8.40
2023-04-13T05:35:00.665Z,8.40
2023-04-13T05:37:28.991Z,8.40
2023-04-13T05:40:00.097Z,8.40
2023-04-13T05:42:37.264Z,8.40
2023-04-13T05:45:09.706Z,8.40
2023-04-13T05:47:47.605Z,8.40
2023-04-13T05:50:17.086Z,8.40
2023-04-13T05:52:45.338Z,8.40
2023-04-13T05:55:13.936Z,8.40
2023-04-13T05:57:50.855Z,8.40
2023-04-13T06:00:21.432Z,8.40
2023-04-13T06:03:01.658Z,8.40
2023-04-13T06:05:32.583Z,8.50
2023-04-13T06:08:01.092Z,8.40
2023-04-13T06:10:29.372Z,8.40
2023-04-13T06:12:57.629Z,8.30
2023-04-13T06:15:25.822Z,8.40
2023-04-13T06:17:54.984Z,8.40
2023-04-13T06:20:24.656Z,8.40
2023-04-13T06:22:52.779Z,8.40
2023-04-13T06:25:26.180Z,8.40
2023-04-13T06:27:54.920Z,8.30
2023-04-13T06:30:23.519Z,8.40
2023-04-13T06:32:57.512Z,8.40
2023-04-13T06:35:30.539Z,8.40
2023-04-13T06:38:00.327Z,8.40
2023-04-13T06:40:34.851Z,8.80
2023-04-13T06:43:13.392Z,9.10
2023-04-13T06:45:58.825Z,9.10
2023-04-13T06:48:29.672Z,9.10
2023-04-13T06:51:02.733Z,9.00
2023-04-13T06:53:34.078Z,8.90
2023-04-13T06:56:02.496Z,8.80
2023-04-13T06:58:32.129Z,8.90
2023-04-13T07:01:00.957Z,8.90
2023-04-13T07:03:32.052Z,8.90
2023-04-13T07:06:01.939Z,9.00
2023-04-13T07:08:32.173Z,9.10
2023-04-13T07:11:02.554Z,9.30
2023-04-13T07:13:37.961Z,9.40
2023-04-13T07:16:09.333Z,9.40
2023-04-13T07:18:40.121Z,9.30
2023-04-13T07:21:09.883Z,9.40
2023-04-13T07:24:04.112Z,9.50
2023-04-13T07:26:34.038Z,9.70
2023-04-13T07:29:02.972Z,9.70
2023-04-13T07:31:37.746Z,9.80
2023-04-13T07:34:07.023Z,9.80
2023-04-13T07:36:43.603Z,10.10
2023-04-13T07:39:14.702Z,10.00
2023-04-13T07:41:47.801Z,9.80
2023-04-13T07:44:21.858Z,9.90
2023-04-13T07:46:50.253Z,10.70
2023-04-13T07:49:19.132Z,11.00
2023-04-13T07:51:49.945Z,10.50
2023-04-13T07:54:18.828Z,10.40
2023-04-13T07:56:50.295Z,10.20
2023-04-13T07:59:21.362Z,10.10
2023-04-13T08:01:52.242Z,9.70
2023-04-13T08:04:22.269Z,9.60
2023-04-13T08:06:52.280Z,9.50
2023-04-13T08:09:20.751Z,9.30
2023-04-13T08:11:49.797Z,9.40
2023-04-13T08:14:19.743Z,9.50
2023-04-13T08:16:51.041Z,9.50
2023-04-13T08:19:20.710Z,9.50
2023-04-13T08:21:55.013Z,9.70
2023-04-13T08:24:23.108Z,9.50
2023-04-13T08:26:52.298Z,9.60
2023-04-13T08:29:20.638Z,9.50
2023-04-13T08:31:49.197Z,9.40
2023-04-13T08:34:18.553Z,9.50
2023-04-13T08:36:47.775Z,9.60
2023-04-13T08:39:17.618Z,9.60
2023-04-13T08:41:47.337Z,9.70
2023-04-13T08:44:19.139Z,9.70
2023-04-13T08:46:52.591Z,9.80
2023-04-13T08:49:28.311Z,9.80
2023-04-13T08:52:16.901Z,10.00
2023-04-13T08:54:50.306Z,10.10
2023-04-13T08:57:24.517Z,10.10
2023-04-13T08:59:53.824Z,10.20
2023-04-13T09:02:26.659Z,10.10
2023-04-13T09:05:16.487Z,10.30
2023-04-13T09:08:01.782Z,10.20
2023-04-13T09:10:42.290Z,10.10
2023-04-13T09:13:20.982Z,10.00
2023-04-13T09:15:49.764Z,10.00
2023-04-13T09:18:36.900Z,10.10
2023-04-13T09:21:15.796Z,10.40
2023-04-13T09:23:54.954Z,10.50
2023-04-13T09:26:42.029Z,10.50
2023-04-13T09:29:21.834Z,10.40
2023-04-13T09:31:51.698Z,10.30
2023-04-13T09:34:30.060Z,10.30
2023-04-13T09:37:01.825Z,10.50
2023-04-13T09:39:30.908Z,10.80
2023-04-13T09:42:10.275Z,10.60
2023-04-13T09:44:38.437Z,10.70
2023-04-13T09:47:08.677Z,11.40
2023-04-13T09:49:40.047Z,11.40
2023-04-13T09:52:08.483Z,11.20
2023-04-13T09:54:36.670Z,11.00
2023-04-13T09:57:06.537Z,10.70
2023-04-13T09:59:35.491Z,10.90
2023-04-13T10:02:05.638Z,11.30
2023-04-13T10:04:36.017Z,11.70
2023-04-13T10:07:05.037Z,11.50
2023-04-13T10:09:33.908Z,11.30
2023-04-13T10:12:02.839Z,11.30
2023-04-13T10:14:35.597Z,11.10
2023-04-13T10:17:12.863Z,11.30
2023-04-13T10:19:44.990Z,11.10
2023-04-13T10:22:14.033Z,11.10
2023-04-13T10:24:48.151Z,11.20
2023-04-13T10:27:28.593Z,10.90
2023-04-13T10:30:19.873Z,11.00
2023-04-13T10:33:05.784Z,11.00
2023-04-13T10:35:57.165Z,11.20
2023-04-13T10:38:43.987Z,11.20
2023-04-13T10:41:28.488Z,11.30
2023-04-13T10:44:11.745Z,11.50
2023-04-13T10:46:59.254Z,11.50
2023-04-13T10:49:42.988Z,11.20
2023-04-13T10:52:26.587Z,11.20
2023-04-13T10:55:11.197Z,11.20
2023-04-13T10:57:55.246Z,11.10
2023-04-13T11:00:46.400Z,11.20
2023-04-13T11:03:32.342Z,11.40
2023-04-13T11:06:16.560Z,11.50
2023-04-13T11:09:07.924Z,11.80
2023-04-13T11:11:53.076Z,11.70
2023-04-13T11:14:38.211Z,11.40
2023-04-13T11:17:22.455Z,11.30
2023-04-13T11:20:11.337Z,11.20
2023-04-13T11:22:57.501Z,11.40
2023-04-13T11:25:52.868Z,11.40
2023-04-13T11:28:40.668Z,11.40
2023-04-13T11:31:15.574Z,11.80
2023-04-13T11:34:00.285Z,11.50
2023-04-13T11:36:30.615Z,11.80
2023-04-13T11:39:14.916Z,12.20
2023-04-13T11:41:44.388Z,12.10
2023-04-13T11:44:27.800Z,12.00
2023-04-13T11:46:57.586Z,11.70
2023-04-13T11:49:47.831Z,12.10
2023-04-13T11:52:19.036Z,12.40
2023-04-13T11:55:19.019Z,12.30
2023-04-13T11:57:52.443Z,12.70
2023-04-13T12:00:38.123Z,12.90
2023-04-13T12:03:34.408Z,12.90
2023-04-13T12:06:17.566Z,12.60
2023-04-13T12:08:54.640Z,12.40
2023-04-13T12:11:44.335Z,12.30
2023-04-13T12:14:48.767Z,12.30
2023-04-13T12:20:17.452Z,12.50
2023-04-13T12:23:08.713Z,12.50
2023-04-13T12:26:31.764Z,12.70
2023-04-13T12:29:09.742Z,12.70
2023-04-13T12:31:52.848Z,12.40
2023-04-13T12:34:36.627Z,12.20
2023-04-13T12:37:07.916Z,11.90
2023-04-13T12:39:51.222Z,12.10
2023-04-13T12:42:25.345Z,12.30
2023-04-13T12:45:09.266Z,12.30
2023-04-13T12:47:44.992Z,12.30
2023-04-13T12:50:28.347Z,12.10
2023-04-13T12:52:59.795Z,12.00
2023-04-13T12:55:43.474Z,11.60
2023-04-13T12:58:30.793Z,11.40
2023-04-13T13:01:15.309Z,11.50
2023-04-13T13:03:57.921Z,12.30
2023-04-13T13:06:41.249Z,12.70
2023-04-13T13:09:28.460Z,12.80
2023-04-13T13:12:17.157Z,12.70
2023-04-13T13:15:10.956Z,12.60
2023-04-13T13:18:00.934Z,12.30
2023-04-13T13:20:29.327Z,12.10
2023-04-13T13:22:58.281Z,12.10
2023-04-13T13:25:26.917Z,12.10
2023-04-13T13:28:13.034Z,12.30
2023-04-13T13:30:44.898Z,12.20
2023-04-13T13:33:13.277Z,11.40
2023-04-13T13:35:41.802Z,11.20
2023-04-13T13:38:10.747Z,11.50
2023-04-13T13:40:38.929Z,11.80
2023-04-13T13:43:07.060Z,12.20
2023-04-13T13:45:36.061Z,12.50
2023-04-13T13:48:07.714Z,12.70
2023-04-13T13:50:45.994Z,12.80
2023-04-13T13:53:15.210Z,13.00
2023-04-13T13:55:43.997Z,13.30
2023-04-13T13:58:12.275Z,13.10
2023-04-13T14:00:40.660Z,13.40
2023-04-13T14:03:10.513Z,13.40
2023-04-13T14:05:39.144Z,13.50
2023-04-13T14:08:07.364Z,13.30
2023-04-13T14:10:36.314Z,13.60
2023-04-13T14:13:04.731Z,13.70
2023-04-13T14:15:34.268Z,13.70
2023-04-13T14:18:10.375Z,13.20
2023-04-13T14:20:40.965Z,12.70
2023-04-13T14:23:10.020Z,12.50
2023-04-13T14:25:39.737Z,12.10
2023-04-13T14:28:11.064Z,12.10
2023-04-13T14:30:40.546Z,12.40
2023-04-13T14:33:08.993Z,12.60
2023-04-13T14:35:38.853Z,12.70
2023-04-13T14:38:09.720Z,12.70
2023-04-13T14:40:38.123Z,13.20
2023-04-13T14:43:06.765Z,13.70
2023-04-13T14:45:35.440Z,13.50
2023-04-13T14:48:04.780Z,13.90
2023-04-13T14:50:33.008Z,13.70
2023-04-13T14:53:04.503Z,13.50
2023-04-13T14:55:34.039Z,13.80
2023-04-13T14:58:03.703Z,13.90
2023-04-13T15:00:43.630Z,13.70
2023-04-13T15:03:13.679Z,13.30
2023-04-13T15:05:42.362Z,13.50
2023-04-13T15:08:11.832Z,13.50
2023-04-13T15:10:41.859Z,13.70
2023-04-13T15:13:13.546Z,13.80
2023-04-13T15:17:45.517Z,17.40
2023-04-13T15:20:13.654Z,17.90
2023-04-13T15:22:41.657Z,18.00
2023-04-13T15:25:10.439Z,18.10
2023-04-13T15:27:38.387Z,18.30
2023-04-13T15:30:08.113Z,18.40
2023-04-13T15:32:36.306Z,18.50
2023-04-13T15:35:06.026Z,18.60
2023-04-13T15:37:33.930Z,18.70
2023-04-13T15:40:04.680Z,18.70
2023-04-13T15:42:32.927Z,18.70
2023-04-13T15:45:01.094Z,18.80
2023-04-13T15:47:29.578Z,18.80
2023-04-13T15:49:57.624Z,18.80
2023-04-13T15:52:27.048Z,18.80
2023-04-13T15:54:55.525Z,18.90
2023-04-13T15:57:23.426Z,18.90
2023-04-13T15:59:51.491Z,18.90
2023-04-13T16:02:19.641Z,18.90
2023-04-13T16:04:48.008Z,18.90
2023-04-13T16:07:16.899Z,18.90
2023-04-13T16:09:47.792Z,19.00
2023-04-13T16:12:17.533Z,18.90
2023-04-13T16:14:45.713Z,18.90
2023-04-13T16:17:14.986Z,18.90
2023-04-13T16:19:46.516Z,18.90
2023-04-13T16:22:14.456Z,19.00
2023-04-13T16:24:43.059Z,18.90
2023-04-13T16:27:12.598Z,18.90
2023-04-13T16:29:41.569Z,18.90
2023-04-13T16:32:09.677Z,18.90
2023-04-13T16:34:38.861Z,18.90
2023-04-13T16:37:07.424Z,18.90
2023-04-13T16:39:35.374Z,18.90
2023-04-13T16:42:03.796Z,18.90
2023-04-13T16:44:33.305Z,18.90
2023-04-13T16:47:01.291Z,18.90
2023-04-13T16:49:29.291Z,18.90
2023-04-13T16:51:57.174Z,18.90
2023-04-13T16:54:25.307Z,18.90
2023-04-13T16:56:54.231Z,19.00
2023-04-13T16:59:22.452Z,18.90
2023-04-13T17:01:54.087Z,18.90
2023-04-13T17:04:22.198Z,18.90
2023-04-13T17:06:50.305Z,19.00
2023-04-13T17:09:18.217Z,19.00
2023-04-13T17:11:46.259Z,19.00
2023-04-13T17:14:14.352Z,19.00
2023-04-13T17:16:42.445Z,18.90
2023-04-13T17:19:11.854Z,18.90
2023-04-13T17:21:41.258Z,19.00
2023-04-13T17:24:09.516Z,19.00
2023-04-13T17:26:37.545Z,18.90
2023-04-13T17:29:06.423Z,19.00
2023-04-13T17:31:34.553Z,19.00
2023-04-13T17:34:02.612Z,18.90
2023-04-13T17:36:32.083Z,18.90
2023-04-13T17:39:01.496Z,18.90
2023-04-13T17:41:29.721Z,18.90
2023-04-13T17:43:57.779Z,19.00
2023-04-13T17:46:26.347Z,18.90
2023-04-13T17:48:54.674Z,18.90
2023-04-13T17:51:22.876Z,19.00
2023-04-13T17:53:52.365Z,18.90
2023-04-13T17:56:20.463Z,18.90
2023-04-13T17:58:48.462Z,18.90
2023-04-13T18:01:16.471Z,18.90
2023-04-13T18:03:44.938Z,18.90
2023-04-13T18:06:13.288Z,18.90
2023-04-13T18:08:41.510Z,18.90
2023-04-13T18:11:11.979Z,18.90
2023-04-13T18:13:40.051Z,18.90
2023-04-13T18:16:10.646Z,18.90
2023-04-13T18:18:40.588Z,18.90
2023-04-13T18:21:09.037Z,18.90
2023-04-13T18:23:37.066Z,19.00
2023-04-13T18:26:05.360Z,18.90
2023-04-13T18:28:37.121Z,18.90
2023-04-13T18:31:07.066Z,18.90
2023-04-13T18:33:34.951Z,18.90
2023-04-13T18:36:02.905Z,18.90
2023-04-13T18:38:30.864Z,18.80
2023-04-13T18:40:58.913Z,18.90
2023-04-13T18:43:28.817Z,18.90
2023-04-13T18:45:58.127Z,18.90
2023-04-13T18:48:26.296Z,18.90
2023-04-13T18:50:54.216Z,18.80
2023-04-13T18:53:22.192Z,18.90
2023-04-13T18:55:50.557Z,18.90
2023-04-13T18:58:19.578Z,18.80
2023-04-13T19:00:47.795Z,18.80
2023-04-13T19:03:17.542Z,18.90
2023-04-13T19:05:46.086Z,18.90
2023-04-13T19:08:15.317Z,18.90
2023-04-13T19:10:43.612Z,18.80
2023-04-13T19:13:11.578Z,18.80
2023-04-13T19:15:40.170Z,18.80
2023-04-13T19:18:11.123Z,18.80
2023-04-13T19:20:40.394Z,18.80
2023-04-13T19:23:08.401Z,18.80
2023-04-13T19:25:36.300Z,18.80
2023-04-13T19:28:04.546Z,18.80
2023-04-13T19:30:32.807Z,18.80
2023-04-13T19:33:00.915Z,18.90
2023-04-13T19:35:29.317Z,19.00
2023-04-13T19:37:58.567Z,18.90
2023-04-13T19:40:27.352Z,18.90
2023-04-13T19:42:55.513Z,18.90
2023-04-13T19:45:23.454Z,18.90
2023-04-13T19:47:51.994Z,18.90
2023-04-13T19:50:19.918Z,18.80
2023-04-13T19:52:50.182Z,18.80
2023-04-13T19:55:19.597Z,18.80
2023-04-13T19:57:48.037Z,18.80
2023-04-13T20:00:20.084Z,18.80
2023-04-13T20:02:50.583Z,18.80
2023-04-13T20:05:20.757Z,18.80
2023-04-13T20:07:48.694Z,18.80
2023-04-13T20:10:17.182Z,18.80
2023-04-13T20:12:46.442Z,18.80
2023-04-13T20:15:16.073Z,18.80
2023-04-13T20:17:44.013Z,18.80
2023-04-13T20:20:12.422Z,18.80
2023-04-13T20:22:40.460Z,18.80
2023-04-13T20:25:09.991Z,18.80
2023-04-13T20:27:41.599Z,18.80
2023-04-13T20:30:11.925Z,18.70
2023-04-13T20:32:40.823Z,18.80
2023-04-13T20:35:10.003Z,18.70
2023-04-13T20:37:37.991Z,18.70
2023-04-13T20:40:07.377Z,18.80
2023-04-13T20:42:35.384Z,18.70
2023-04-13T20:45:04.409Z,18.80
2023-04-13T20:47:35.422Z,18.70
2023-04-13T20:50:04.639Z,18.80
2023-04-13T20:52:32.726Z,18.80
2023-04-13T20:55:00.600Z,18.80
2023-04-13T20:57:28.524Z,18.80
2023-04-13T20:59:56.520Z,18.80
2023-04-13T21:02:25.733Z,18.80
2023-04-13T21:04:56.479Z,18.80
2023-04-13T21:07:24.413Z,18.80
2023-04-13T21:09:52.307Z,18.80
2023-04-13T21:12:20.207Z,18.80
2023-04-13T21:14:48.117Z,18.80
2023-04-13T21:17:16.023Z,18.80
2023-04-13T21:19:43.977Z,18.80
2023-04-13T21:22:13.319Z,18.80
2023-04-13T21:24:41.443Z,18.80
2023-04-13T21:27:09.483Z,18.80
2023-04-13T21:29:37.419Z,18.80
2023-04-13T21:32:05.483Z,18.80
2023-04-13T21:34:33.718Z,18.80
2023-04-13T21:37:03.125Z,18.80
2023-04-13T21:39:34.049Z,18.80
2023-04-13T21:42:02.022Z,18.80
2023-04-13T21:44:30.521Z,18.80
2023-04-13T21:46:58.703Z,18.80
2023-04-13T21:49:27.143Z,18.90
2023-04-13T21:51:55.141Z,18.90
2023-04-13T21:54:23.070Z,18.90
2023-04-13T21:56:52.345Z,18.90
2023-04-13T21:59:20.299Z,18.80
2023-04-13T22:01:48.421Z,18.80
2023-04-13T22:04:16.563Z,18.80
2023-04-13T22:06:44.651Z,18.90
2023-04-13T22:09:13.317Z,18.90
2023-04-13T22:11:41.362Z,18.90
2023-04-13T22:14:10.660Z,18.90
2023-04-13T22:16:38.595Z,18.80
2023-04-13T22:19:06.681Z,18.80
2023-04-13T22:21:38.611Z,18.80
2023-04-13T22:24:07.366Z,18.80
2023-04-13T22:26:35.257Z,18.90
2023-04-13T22:29:03.322Z,18.80
2023-04-13T22:31:32.671Z,18.80
2023-04-13T22:34:00.599Z,18.80
2023-04-13T22:36:28.528Z,18.80
2023-04-13T22:38:56.445Z,18.90
2023-04-13T22:41:24.410Z,18.80
2023-04-13T22:43:52.554Z,18.80
2023-04-13T22:46:22.969Z,18.80
2023-04-13T22:48:52.712Z,18.80
2023-04-13T22:51:20.882Z,18.80
2023-04-13T22:53:49.780Z,18.80
2023-04-13T22:56:17.715Z,18.90
2023-04-13T22:58:45.801Z,18.80
2023-04-13T23:01:13.735Z,18.90
2023-04-13T23:03:41.801Z,18.80
2023-04-13T23:06:11.179Z,18.80
2023-04-13T23:08:39.106Z,18.80
2023-04-13T23:11:08.968Z,18.90
2023-04-13T23:13:38.464Z,18.90
2023-04-13T23:16:07.332Z,18.80
2023-04-13T23:18:35.635Z,18.90
2023-04-13T23:21:12.038Z,18.90
2023-04-13T23:23:40.518Z,18.80
2023-04-13T23:26:08.565Z,18.80
2023-04-13T23:28:36.976Z,18.90
2023-04-13T23:31:06.012Z,18.90
2023-04-13T23:33:33.998Z,18.90
2023-04-13T23:36:02.336Z,18.80
2023-04-13T23:38:32.546Z,18.90
2023-04-13T23:41:00.978Z,18.80
2023-04-13T23:43:29.265Z,18.90
2023-04-13T23:45:58.822Z,18.80
2023-04-13T23:48:27.121Z,18.90
2023-04-13T23:50:56.789Z,18.90
2023-04-13T23:53:24.718Z,18.90
2023-04-13T23:55:53.928Z,18.90
2023-04-13T23:58:21.839Z,18.80
